sensor_id;sensor_type;location;lat;lon;timestamp;P1;durP1;ratioP1;P2;durP2;ratioP2
27383;SDS011;14851;51.166;4.760;2023-04-24T00:00:42;15.70;;;11.65;;
27383;SDS011;14851;51.166;4.760;2023-04-24T00:03:10;17.02;;;11.55;;
27383;SDS011;14851;51.166;4.760;2023-04-24T00:05:36;16.42;;;11.45;;
27383;SDS011;14851;51.166;4.760;2023-04-24T00:08:02;18.20;;;12.27;;
27383;SDS011;14851;51.166;4.760;2023-04-24T00:10:28;20.55;;;12.27;;
27383;SDS011;14851;51.166;4.760;2023-04-24T00:12:54;20.20;;;12.70;;
27383;SDS011;14851;51.166;4.760;2023-04-24T00:15:20;21.85;;;12.93;;
27383;SDS011;14851;51.166;4.760;2023-04-24T00:17:47;18.27;;;13.18;;
27383;SDS011;14851;51.166;4.760;2023-04-24T00:20:13;19.38;;;12.55;;
27383;SDS011;14851;51.166;4.760;2023-04-24T00:22:40;17.75;;;12.98;;
27383;SDS011;14851;51.166;4.760;2023-04-24T00:25:06;25.35;;;13.88;;
27383;SDS011;14851;51.166;4.760;2023-04-24T00:27:32;19.20;;;13.77;;
27383;SDS011;14851;51.166;4.760;2023-04-24T00:30:00;18.38;;;13.82;;
27383;SDS011;14851;51.166;4.760;2023-04-24T00:32:25;22.75;;;14.68;;
27383;SDS011;14851;51.166;4.760;2023-04-24T00:34:51;20.05;;;13.85;;
27383;SDS011;14851;51.166;4.760;2023-04-24T00:37:20;23.40;;;15.15;;
27383;SDS011;14851;51.166;4.760;2023-04-24T00:39:45;21.30;;;15.38;;
27383;SDS011;14851;51.166;4.760;2023-04-24T00:42:11;24.75;;;16.00;;
27383;SDS011;14851;51.166;4.760;2023-04-24T00:44:37;25.33;;;15.93;;
27383;SDS011;14851;51.166;4.760;2023-04-24T00:47:05;21.02;;;15.10;;
27383;SDS011;14851;51.166;4.760;2023-04-24T00:49:33;21.63;;;15.02;;
27383;SDS011;14851;51.166;4.760;2023-04-24T00:52:02;22.55;;;15.90;;
27383;SDS011;14851;51.166;4.760;2023-04-24T00:54:35;22.45;;;16.42;;
27383;SDS011;14851;51.166;4.760;2023-04-24T00:57:04;21.33;;;14.32;;
27383;SDS011;14851;51.166;4.760;2023-04-24T00:59:30;18.50;;;15.02;;
27383;SDS011;14851;51.166;4.760;2023-04-24T01:01:57;20.40;;;15.05;;
27383;SDS011;14851;51.166;4.760;2023-04-24T01:04:23;23.75;;;15.73;;
27383;SDS011;14851;51.166;4.760;2023-04-24T01:06:51;21.58;;;15.45;;
27383;SDS011;14851;51.166;4.760;2023-04-24T01:09:18;24.58;;;15.77;;
27383;SDS011;14851;51.166;4.760;2023-04-24T01:11:44;19.30;;;15.32;;
27383;SDS011;14851;51.166;4.760;2023-04-24T01:14:10;18.92;;;14.88;;
27383;SDS011;14851;51.166;4.760;2023-04-24T01:16:37;20.05;;;15.45;;
27383;SDS011;14851;51.166;4.760;2023-04-24T01:19:10;26.20;;;16.40;;
27383;SDS011;14851;51.166;4.760;2023-04-24T01:21:40;23.33;;;16.25;;
27383;SDS011;14851;51.166;4.760;2023-04-24T01:24:09;19.88;;;14.88;;
27383;SDS011;14851;51.166;4.760;2023-04-24T01:26:35;20.80;;;14.90;;
27383;SDS011;14851;51.166;4.760;2023-04-24T01:29:01;22.60;;;15.73;;
27383;SDS011;14851;51.166;4.760;2023-04-24T01:31:26;17.60;;;14.98;;
27383;SDS011;14851;51.166;4.760;2023-04-24T01:33:53;25.33;;;15.45;;
27383;SDS011;14851;51.166;4.760;2023-04-24T01:36:23;24.65;;;16.52;;
27383;SDS011;14851;51.166;4.760;2023-04-24T01:38:50;21.48;;;16.35;;
27383;SDS011;14851;51.166;4.760;2023-04-24T01:41:17;19.60;;;15.27;;
27383;SDS011;14851;51.166;4.760;2023-04-24T01:43:43;22.13;;;15.95;;
27383;SDS011;14851;51.166;4.760;2023-04-24T01:46:09;19.90;;;14.52;;
27383;SDS011;14851;51.166;4.760;2023-04-24T01:48:38;23.52;;;14.98;;
27383;SDS011;14851;51.166;4.760;2023-04-24T01:51:03;22.17;;;15.57;;
27383;SDS011;14851;51.166;4.760;2023-04-24T01:53:31;22.02;;;14.80;;
27383;SDS011;14851;51.166;4.760;2023-04-24T01:55:57;22.30;;;14.85;;
27383;SDS011;14851;51.166;4.760;2023-04-24T01:58:24;22.98;;;15.43;;
27383;SDS011;14851;51.166;4.760;2023-04-24T02:00:58;25.58;;;14.63;;
27383;SDS011;14851;51.166;4.760;2023-04-24T02:03:27;22.30;;;14.68;;
27383;SDS011;14851;51.166;4.760;2023-04-24T02:05:57;20.25;;;14.88;;
27383;SDS011;14851;51.166;4.760;2023-04-24T02:08:26;17.25;;;13.75;;
27383;SDS011;14851;51.166;4.760;2023-04-24T02:10:52;22.23;;;14.18;;
27383;SDS011;14851;51.166;4.760;2023-04-24T02:13:17;20.58;;;14.45;;
27383;SDS011;14851;51.166;4.760;2023-04-24T02:15:46;16.73;;;12.95;;
27383;SDS011;14851;51.166;4.760;2023-04-24T02:18:12;18.65;;;13.55;;
27383;SDS011;14851;51.166;4.760;2023-04-24T02:20:38;18.92;;;13.77;;
27383;SDS011;14851;51.166;4.760;2023-04-24T02:23:04;20.05;;;13.07;;
27383;SDS011;14851;51.166;4.760;2023-04-24T02:25:30;17.38;;;13.20;;
27383;SDS011;14851;51.166;4.760;2023-04-24T02:27:55;19.95;;;13.13;;
27383;SDS011;14851;51.166;4.760;2023-04-24T02:30:21;19.77;;;12.75;;
27383;SDS011;14851;51.166;4.760;2023-04-24T02:32:50;16.38;;;11.98;;
27383;SDS011;14851;51.166;4.760;2023-04-24T02:35:17;17.02;;;12.10;;
27383;SDS011;14851;51.166;4.760;2023-04-24T02:37:43;14.63;;;11.32;;
27383;SDS011;14851;51.166;4.760;2023-04-24T02:40:11;16.35;;;11.02;;
27383;SDS011;14851;51.166;4.760;2023-04-24T02:42:37;14.40;;;11.93;;
27383;SDS011;14851;51.166;4.760;2023-04-24T02:45:02;19.60;;;11.95;;
27383;SDS011;14851;51.166;4.760;2023-04-24T02:47:33;15.93;;;12.30;;
27383;SDS011;14851;51.166;4.760;2023-04-24T02:50:09;14.02;;;12.32;;
27383;SDS011;14851;51.166;4.760;2023-04-24T02:52:35;16.98;;;11.93;;
27383;SDS011;14851;51.166;4.760;2023-04-24T02:55:02;12.85;;;10.93;;
27383;SDS011;14851;51.166;4.760;2023-04-24T02:57:29;15.18;;;10.70;;
27383;SDS011;14851;51.166;4.760;2023-04-24T02:59:55;12.70;;;11.07;;
27383;SDS011;14851;51.166;4.760;2023-04-24T03:02:23;12.00;;;10.45;;
27383;SDS011;14851;51.166;4.760;2023-04-24T03:04:51;10.32;;;9.23;;
27383;SDS011;14851;51.166;4.760;2023-04-24T03:07:19;10.93;;;8.73;;
27383;SDS011;14851;51.166;4.760;2023-04-24T03:09:46;12.68;;;9.55;;
27383;SDS011;14851;51.166;4.760;2023-04-24T03:12:15;10.45;;;8.50;;
27383;SDS011;14851;51.166;4.760;2023-04-24T03:14:43;9.50;;;8.30;;
27383;SDS011;14851;51.166;4.760;2023-04-24T03:17:09;9.98;;;8.18;;
27383;SDS011;14851;51.166;4.760;2023-04-24T03:19:35;10.32;;;8.32;;
27383;SDS011;14851;51.166;4.760;2023-04-24T03:22:08;9.85;;;8.52;;
27383;SDS011;14851;51.166;4.760;2023-04-24T03:24:35;10.05;;;9.05;;
27383;SDS011;14851;51.166;4.760;2023-04-24T03:27:03;9.85;;;8.43;;
27383;SDS011;14851;51.166;4.760;2023-04-24T03:29:47;10.82;;;9.32;;
27383;SDS011;14851;51.166;4.760;2023-04-24T03:32:14;12.85;;;9.55;;
27383;SDS011;14851;51.166;4.760;2023-04-24T03:34:40;11.50;;;9.45;;
27383;SDS011;14851;51.166;4.760;2023-04-24T03:37:08;12.57;;;9.93;;
27383;SDS011;14851;51.166;4.760;2023-04-24T03:39:40;11.90;;;9.43;;
27383;SDS011;14851;51.166;4.760;2023-04-24T03:42:06;11.35;;;10.13;;
27383;SDS011;14851;51.166;4.760;2023-04-24T03:44:44;11.77;;;9.63;;
27383;SDS011;14851;51.166;4.760;2023-04-24T03:47:10;13.68;;;9.98;;
27383;SDS011;14851;51.166;4.760;2023-04-24T03:49:36;10.80;;;9.70;;
27383;SDS011;14851;51.166;4.760;2023-04-24T03:52:03;13.10;;;10.48;;
27383;SDS011;14851;51.166;4.760;2023-04-24T03:54:29;11.93;;;10.30;;
27383;SDS011;14851;51.166;4.760;2023-04-24T03:56:55;10.77;;;9.60;;
27383;SDS011;14851;51.166;4.760;2023-04-24T03:59:23;9.82;;;8.82;;
27383;SDS011;14851;51.166;4.760;2023-04-24T04:02:03;11.35;;;10.13;;
27383;SDS011;14851;51.166;4.760;2023-04-24T04:04:30;11.88;;;9.90;;
27383;SDS011;14851;51.166;4.760;2023-04-24T04:06:56;12.93;;;10.40;;
27383;SDS011;14851;51.166;4.760;2023-04-24T04:09:26;13.45;;;9.98;;
27383;SDS011;14851;51.166;4.760;2023-04-24T04:11:52;10.65;;;8.85;;
27383;SDS011;14851;51.166;4.760;2023-04-24T04:14:18;10.82;;;8.70;;
27383;SDS011;14851;51.166;4.760;2023-04-24T04:16:49;9.77;;;8.75;;
27383;SDS011;14851;51.166;4.760;2023-04-24T04:19:15;9.20;;;8.30;;
27383;SDS011;14851;51.166;4.760;2023-04-24T04:21:41;9.02;;;7.80;;
27383;SDS011;14851;51.166;4.760;2023-04-24T04:24:19;8.38;;;7.13;;
27383;SDS011;14851;51.166;4.760;2023-04-24T04:26:52;8.13;;;6.75;;
27383;SDS011;14851;51.166;4.760;2023-04-24T04:29:28;8.75;;;6.82;;
27383;SDS011;14851;51.166;4.760;2023-04-24T04:31:54;8.73;;;6.25;;
27383;SDS011;14851;51.166;4.760;2023-04-24T04:34:24;8.13;;;5.80;;
27383;SDS011;14851;51.166;4.760;2023-04-24T04:36:50;8.68;;;5.90;;
27383;SDS011;14851;51.166;4.760;2023-04-24T04:39:36;7.93;;;6.00;;
27383;SDS011;14851;51.166;4.760;2023-04-24T04:42:05;6.05;;;4.50;;
27383;SDS011;14851;51.166;4.760;2023-04-24T04:44:39;8.00;;;4.72;;
27383;SDS011;14851;51.166;4.760;2023-04-24T04:47:06;5.28;;;3.83;;
27383;SDS011;14851;51.166;4.760;2023-04-24T04:49:38;5.22;;;4.50;;
27383;SDS011;14851;51.166;4.760;2023-04-24T04:52:13;5.60;;;4.85;;
27383;SDS011;14851;51.166;4.760;2023-04-24T04:54:42;6.57;;;4.78;;
27383;SDS011;14851;51.166;4.760;2023-04-24T04:57:10;5.57;;;5.07;;
27383;SDS011;14851;51.166;4.760;2023-04-24T04:59:36;8.23;;;5.25;;
27383;SDS011;14851;51.166;4.760;2023-04-24T05:02:07;8.27;;;5.50;;
27383;SDS011;14851;51.166;4.760;2023-04-24T05:07:05;8.20;;;5.95;;
27383;SDS011;14851;51.166;4.760;2023-04-24T05:09:37;10.07;;;6.05;;
27383;SDS011;14851;51.166;4.760;2023-04-24T05:12:05;11.43;;;7.00;;
27383;SDS011;14851;51.166;4.760;2023-04-24T05:14:35;9.50;;;6.97;;
27383;SDS011;14851;51.166;4.760;2023-04-24T05:17:04;9.48;;;6.93;;
27383;SDS011;14851;51.166;4.760;2023-04-24T05:19:31;12.93;;;8.50;;
27383;SDS011;14851;51.166;4.760;2023-04-24T05:22:01;13.02;;;8.20;;
27383;SDS011;14851;51.166;4.760;2023-04-24T05:24:34;14.48;;;9.85;;
27383;SDS011;14851;51.166;4.760;2023-04-24T05:27:13;15.40;;;11.23;;
27383;SDS011;14851;51.166;4.760;2023-04-24T05:29:39;16.40;;;11.45;;
27383;SDS011;14851;51.166;4.760;2023-04-24T05:32:07;18.80;;;12.27;;
27383;SDS011;14851;51.166;4.760;2023-04-24T05:34:35;22.02;;;13.15;;
27383;SDS011;14851;51.166;4.760;2023-04-24T05:37:01;17.88;;;12.82;;
27383;SDS011;14851;51.166;4.760;2023-04-24T05:39:33;18.75;;;12.93;;
27383;SDS011;14851;51.166;4.760;2023-04-24T05:42:00;17.48;;;12.98;;
27383;SDS011;14851;51.166;4.760;2023-04-24T05:44:27;20.65;;;13.77;;
27383;SDS011;14851;51.166;4.760;2023-04-24T05:46:52;18.77;;;12.88;;
27383;SDS011;14851;51.166;4.760;2023-04-24T05:49:21;20.02;;;12.23;;
27383;SDS011;14851;51.166;4.760;2023-04-24T05:51:49;20.70;;;12.65;;
27383;SDS011;14851;51.166;4.760;2023-04-24T05:54:18;20.25;;;12.32;;
27383;SDS011;14851;51.166;4.760;2023-04-24T05:56:46;17.30;;;10.82;;
27383;SDS011;14851;51.166;4.760;2023-04-24T05:59:18;15.27;;;10.65;;
27383;SDS011;14851;51.166;4.760;2023-04-24T06:01:45;13.43;;;10.18;;
27383;SDS011;14851;51.166;4.760;2023-04-24T06:04:18;18.38;;;10.52;;
27383;SDS011;14851;51.166;4.760;2023-04-24T06:06:47;13.82;;;10.32;;
27383;SDS011;14851;51.166;4.760;2023-04-24T06:09:16;16.08;;;10.73;;
27383;SDS011;14851;51.166;4.760;2023-04-24T06:11:43;13.93;;;9.02;;
27383;SDS011;14851;51.166;4.760;2023-04-24T06:14:11;17.63;;;10.75;;
27383;SDS011;14851;51.166;4.760;2023-04-24T06:16:37;16.70;;;10.88;;
27383;SDS011;14851;51.166;4.760;2023-04-24T06:19:12;15.02;;;10.27;;
27383;SDS011;14851;51.166;4.760;2023-04-24T06:21:42;14.82;;;9.68;;
27383;SDS011;14851;51.166;4.760;2023-04-24T06:24:08;15.65;;;9.75;;
27383;SDS011;14851;51.166;4.760;2023-04-24T06:26:34;16.92;;;11.38;;
27383;SDS011;14851;51.166;4.760;2023-04-24T06:29:03;17.08;;;10.77;;
27383;SDS011;14851;51.166;4.760;2023-04-24T06:31:29;17.50;;;11.00;;
27383;SDS011;14851;51.166;4.760;2023-04-24T06:33:55;17.98;;;10.15;;
27383;SDS011;14851;51.166;4.760;2023-04-24T06:36:23;19.02;;;10.52;;
27383;SDS011;14851;51.166;4.760;2023-04-24T06:38:49;20.95;;;10.50;;
27383;SDS011;14851;51.166;4.760;2023-04-24T06:41:15;15.18;;;11.20;;
27383;SDS011;14851;51.166;4.760;2023-04-24T06:43:45;16.85;;;11.55;;
27383;SDS011;14851;51.166;4.760;2023-04-24T06:46:11;17.42;;;11.90;;
27383;SDS011;14851;51.166;4.760;2023-04-24T06:48:37;20.48;;;12.18;;
27383;SDS011;14851;51.166;4.760;2023-04-24T06:51:03;19.92;;;11.05;;
27383;SDS011;14851;51.166;4.760;2023-04-24T06:53:28;17.80;;;12.35;;
27383;SDS011;14851;51.166;4.760;2023-04-24T06:55:54;17.55;;;12.73;;
27383;SDS011;14851;51.166;4.760;2023-04-24T06:58:23;19.73;;;12.63;;
27383;SDS011;14851;51.166;4.760;2023-04-24T07:00:53;21.25;;;15.40;;
27383;SDS011;14851;51.166;4.760;2023-04-24T07:03:21;20.27;;;15.15;;
27383;SDS011;14851;51.166;4.760;2023-04-24T07:05:47;20.45;;;15.82;;
27383;SDS011;14851;51.166;4.760;2023-04-24T07:08:17;26.25;;;15.90;;
27383;SDS011;14851;51.166;4.760;2023-04-24T07:10:49;28.15;;;15.57;;
27383;SDS011;14851;51.166;4.760;2023-04-24T07:13:32;24.88;;;16.45;;
27383;SDS011;14851;51.166;4.760;2023-04-24T07:16:02;29.45;;;16.95;;
27383;SDS011;14851;51.166;4.760;2023-04-24T07:18:39;24.75;;;15.45;;
27383;SDS011;14851;51.166;4.760;2023-04-24T07:21:18;26.77;;;16.45;;
27383;SDS011;14851;51.166;4.760;2023-04-24T07:23:44;20.75;;;14.65;;
27383;SDS011;14851;51.166;4.760;2023-04-24T07:26:09;26.17;;;15.88;;
27383;SDS011;14851;51.166;4.760;2023-04-24T07:28:35;23.02;;;15.43;;
27383;SDS011;14851;51.166;4.760;2023-04-24T07:31:04;23.60;;;13.45;;
27383;SDS011;14851;51.166;4.760;2023-04-24T07:33:30;22.63;;;13.45;;
27383;SDS011;14851;51.166;4.760;2023-04-24T07:35:59;25.05;;;14.13;;
27383;SDS011;14851;51.166;4.760;2023-04-24T07:38:29;23.98;;;13.15;;
27383;SDS011;14851;51.166;4.760;2023-04-24T07:40:58;18.25;;;10.98;;
27383;SDS011;14851;51.166;4.760;2023-04-24T07:43:26;23.70;;;10.40;;
27383;SDS011;14851;51.166;4.760;2023-04-24T07:45:54;21.75;;;9.82;;
27383;SDS011;14851;51.166;4.760;2023-04-24T07:48:20;21.98;;;9.20;;
27383;SDS011;14851;51.166;4.760;2023-04-24T07:50:47;23.00;;;8.85;;
27383;SDS011;14851;51.166;4.760;2023-04-24T07:53:21;19.52;;;7.18;;
27383;SDS011;14851;51.166;4.760;2023-04-24T07:55:50;15.38;;;7.03;;
27383;SDS011;14851;51.166;4.760;2023-04-24T07:58:17;22.25;;;8.38;;
27383;SDS011;14851;51.166;4.760;2023-04-24T08:00:43;18.67;;;7.32;;
27383;SDS011;14851;51.166;4.760;2023-04-24T08:03:12;15.18;;;6.57;;
27383;SDS011;14851;51.166;4.760;2023-04-24T08:05:38;19.92;;;7.45;;
27383;SDS011;14851;51.166;4.760;2023-04-24T08:08:10;14.95;;;6.43;;
27383;SDS011;14851;51.166;4.760;2023-04-24T08:10:38;18.40;;;7.20;;
27383;SDS011;14851;51.166;4.760;2023-04-24T08:13:36;13.88;;;5.38;;
27383;SDS011;14851;51.166;4.760;2023-04-24T08:16:15;15.57;;;4.82;;
27383;SDS011;14851;51.166;4.760;2023-04-24T08:18:43;16.60;;;5.00;;
27383;SDS011;14851;51.166;4.760;2023-04-24T08:21:11;11.52;;;4.30;;
27383;SDS011;14851;51.166;4.760;2023-04-24T08:23:44;15.25;;;4.85;;
27383;SDS011;14851;51.166;4.760;2023-04-24T08:26:11;16.02;;;4.68;;
27383;SDS011;14851;51.166;4.760;2023-04-24T08:28:38;17.85;;;5.00;;
27383;SDS011;14851;51.166;4.760;2023-04-24T08:31:09;17.15;;;4.45;;
27383;SDS011;14851;51.166;4.760;2023-04-24T08:33:39;19.85;;;4.63;;
27383;SDS011;14851;51.166;4.760;2023-04-24T08:36:10;16.70;;;4.63;;
27383;SDS011;14851;51.166;4.760;2023-04-24T08:38:41;13.80;;;4.53;;
27383;SDS011;14851;51.166;4.760;2023-04-24T08:41:07;18.02;;;4.32;;
27383;SDS011;14851;51.166;4.760;2023-04-24T08:43:37;13.60;;;4.10;;
27383;SDS011;14851;51.166;4.760;2023-04-24T08:46:04;14.40;;;4.20;;
27383;SDS011;14851;51.166;4.760;2023-04-24T08:48:32;15.38;;;3.50;;
27383;SDS011;14851;51.166;4.760;2023-04-24T08:50:58;13.68;;;4.47;;
27383;SDS011;14851;51.166;4.760;2023-04-24T08:53:25;15.18;;;4.18;;
27383;SDS011;14851;51.166;4.760;2023-04-24T08:55:51;18.75;;;5.05;;
27383;SDS011;14851;51.166;4.760;2023-04-24T08:58:22;14.30;;;4.43;;
27383;SDS011;14851;51.166;4.760;2023-04-24T09:00:51;12.77;;;4.20;;
27383;SDS011;14851;51.166;4.760;2023-04-24T09:03:19;17.05;;;4.47;;
27383;SDS011;14851;51.166;4.760;2023-04-24T09:05:47;15.13;;;4.63;;
27383;SDS011;14851;51.166;4.760;2023-04-24T09:08:17;11.68;;;4.25;;
27383;SDS011;14851;51.166;4.760;2023-04-24T09:10:44;13.93;;;4.60;;
27383;SDS011;14851;51.166;4.760;2023-04-24T09:13:10;20.00;;;5.60;;
27383;SDS011;14851;51.166;4.760;2023-04-24T09:15:38;17.58;;;5.32;;
27383;SDS011;14851;51.166;4.760;2023-04-24T09:18:08;19.55;;;6.10;;
27383;SDS011;14851;51.166;4.760;2023-04-24T09:20:33;23.80;;;5.35;;
27383;SDS011;14851;51.166;4.760;2023-04-24T09:23:01;15.25;;;5.22;;
27383;SDS011;14851;51.166;4.760;2023-04-24T09:25:31;11.45;;;4.68;;
27383;SDS011;14851;51.166;4.760;2023-04-24T09:28:05;13.05;;;4.10;;
27383;SDS011;14851;51.166;4.760;2023-04-24T09:30:33;13.23;;;4.25;;
27383;SDS011;14851;51.166;4.760;2023-04-24T09:33:14;11.63;;;4.65;;
27383;SDS011;14851;51.166;4.760;2023-04-24T09:35:50;14.60;;;4.57;;
27383;SDS011;14851;51.166;4.760;2023-04-24T09:38:17;14.75;;;4.10;;
27383;SDS011;14851;51.166;4.760;2023-04-24T09:40:43;12.90;;;3.67;;
27383;SDS011;14851;51.166;4.760;2023-04-24T09:43:12;9.82;;;2.78;;
27383;SDS011;14851;51.166;4.760;2023-04-24T09:45:41;9.35;;;3.08;;
27383;SDS011;14851;51.166;4.760;2023-04-24T09:48:10;16.88;;;3.35;;
27383;SDS011;14851;51.166;4.760;2023-04-24T09:50:36;12.20;;;3.40;;
27383;SDS011;14851;51.166;4.760;2023-04-24T09:53:03;9.68;;;3.58;;
27383;SDS011;14851;51.166;4.760;2023-04-24T09:55:35;10.75;;;3.50;;
27383;SDS011;14851;51.166;4.760;2023-04-24T09:58:07;15.45;;;4.65;;
27383;SDS011;14851;51.166;4.760;2023-04-24T10:00:33;15.02;;;3.67;;
27383;SDS011;14851;51.166;4.760;2023-04-24T10:03:01;10.80;;;3.55;;
27383;SDS011;14851;51.166;4.760;2023-04-24T10:05:34;11.68;;;2.83;;
27383;SDS011;14851;51.166;4.760;2023-04-24T10:10:39;12.50;;;3.20;;
27383;SDS011;14851;51.166;4.760;2023-04-24T10:13:11;11.00;;;2.88;;
27383;SDS011;14851;51.166;4.760;2023-04-24T10:15:41;8.05;;;2.67;;
27383;SDS011;14851;51.166;4.760;2023-04-24T10:18:07;10.88;;;2.95;;
27383;SDS011;14851;51.166;4.760;2023-04-24T10:20:37;13.52;;;2.80;;
27383;SDS011;14851;51.166;4.760;2023-04-24T10:23:05;12.50;;;3.67;;
27383;SDS011;14851;51.166;4.760;2023-04-24T10:25:32;9.48;;;2.85;;
27383;SDS011;14851;51.166;4.760;2023-04-24T10:28:00;9.77;;;3.10;;
27383;SDS011;14851;51.166;4.760;2023-04-24T10:30:29;14.98;;;3.25;;
27383;SDS011;14851;51.166;4.760;2023-04-24T10:33:00;9.80;;;2.88;;
27383;SDS011;14851;51.166;4.760;2023-04-24T10:38:01;10.57;;;3.08;;
27383;SDS011;14851;51.166;4.760;2023-04-24T10:40:34;7.88;;;3.33;;
27383;SDS011;14851;51.166;4.760;2023-04-24T10:43:04;9.60;;;3.03;;
27383;SDS011;14851;51.166;4.760;2023-04-24T10:45:33;9.48;;;2.72;;
27383;SDS011;14851;51.166;4.760;2023-04-24T10:48:03;11.77;;;3.00;;
27383;SDS011;14851;51.166;4.760;2023-04-24T10:50:47;10.55;;;2.78;;
27383;SDS011;14851;51.166;4.760;2023-04-24T10:53:18;8.48;;;2.20;;
27383;SDS011;14851;51.166;4.760;2023-04-24T10:58:16;8.95;;;2.78;;
27383;SDS011;14851;51.166;4.760;2023-04-24T11:00:56;7.38;;;2.10;;
27383;SDS011;14851;51.166;4.760;2023-04-24T11:03:26;12.60;;;2.63;;
27383;SDS011;14851;51.166;4.760;2023-04-24T11:06:07;8.93;;;2.58;;
27383;SDS011;14851;51.166;4.760;2023-04-24T11:08:38;7.72;;;2.63;;
27383;SDS011;14851;51.166;4.760;2023-04-24T11:11:13;10.98;;;3.05;;
27383;SDS011;14851;51.166;4.760;2023-04-24T11:19:02;5.88;;;2.50;;
27383;SDS011;14851;51.166;4.760;2023-04-24T11:26:59;7.40;;;3.03;;
27383;SDS011;14851;51.166;4.760;2023-04-24T11:32:14;4.97;;;2.60;;
27383;SDS011;14851;51.166;4.760;2023-04-24T11:34:41;8.32;;;2.03;;
27383;SDS011;14851;51.166;4.760;2023-04-24T11:37:12;7.82;;;2.25;;
27383;SDS011;14851;51.166;4.760;2023-04-24T11:39:38;6.57;;;2.10;;
27383;SDS011;14851;51.166;4.760;2023-04-24T11:42:06;6.43;;;2.30;;
27383;SDS011;14851;51.166;4.760;2023-04-24T11:44:33;10.70;;;2.42;;
27383;SDS011;14851;51.166;4.760;2023-04-24T11:47:00;8.82;;;2.22;;
27383;SDS011;14851;51.166;4.760;2023-04-24T11:49:26;7.78;;;2.38;;
27383;SDS011;14851;51.166;4.760;2023-04-24T11:51:55;4.00;;;1.60;;
27383;SDS011;14851;51.166;4.760;2023-04-24T11:54:24;5.57;;;1.67;;
27383;SDS011;14851;51.166;4.760;2023-04-24T11:56:50;4.53;;;1.50;;
27383;SDS011;14851;51.166;4.760;2023-04-24T11:59:16;4.53;;;1.33;;
27383;SDS011;14851;51.166;4.760;2023-04-24T12:01:47;4.32;;;1.30;;
27383;SDS011;14851;51.166;4.760;2023-04-24T12:04:14;4.68;;;1.50;;
27383;SDS011;14851;51.166;4.760;2023-04-24T12:09:46;6.35;;;1.40;;
27383;SDS011;14851;51.166;4.760;2023-04-24T12:12:15;4.28;;;1.30;;
27383;SDS011;14851;51.166;4.760;2023-04-24T12:14:47;3.80;;;1.30;;
27383;SDS011;14851;51.166;4.760;2023-04-24T12:17:17;3.83;;;1.33;;
27383;SDS011;14851;51.166;4.760;2023-04-24T12:19:52;5.95;;;1.17;;
27383;SDS011;14851;51.166;4.760;2023-04-24T12:22:26;4.90;;;2.15;;
27383;SDS011;14851;51.166;4.760;2023-04-24T12:24:56;4.80;;;1.60;;
27383;SDS011;14851;51.166;4.760;2023-04-24T12:29:53;5.15;;;1.42;;
27383;SDS011;14851;51.166;4.760;2023-04-24T12:32:22;3.45;;;1.20;;
27383;SDS011;14851;51.166;4.760;2023-04-24T12:34:52;4.13;;;1.63;;
27383;SDS011;14851;51.166;4.760;2023-04-24T12:37:18;5.47;;;1.75;;
27383;SDS011;14851;51.166;4.760;2023-04-24T12:40:02;4.13;;;1.65;;
27383;SDS011;14851;51.166;4.760;2023-04-24T12:42:33;4.32;;;1.40;;
27383;SDS011;14851;51.166;4.760;2023-04-24T12:45:04;7.65;;;1.70;;
27383;SDS011;14851;51.166;4.760;2023-04-24T12:47:31;6.53;;;1.60;;
27383;SDS011;14851;51.166;4.760;2023-04-24T12:49:59;5.53;;;2.00;;
27383;SDS011;14851;51.166;4.760;2023-04-24T12:52:27;3.70;;;1.67;;
27383;SDS011;14851;51.166;4.760;2023-04-24T12:54:54;6.95;;;1.65;;
27383;SDS011;14851;51.166;4.760;2023-04-24T12:57:23;6.50;;;1.60;;
27383;SDS011;14851;51.166;4.760;2023-04-24T12:59:53;7.47;;;1.88;;
27383;SDS011;14851;51.166;4.760;2023-04-24T13:02:24;3.50;;;1.70;;
27383;SDS011;14851;51.166;4.760;2023-04-24T13:04:52;6.35;;;1.55;;
27383;SDS011;14851;51.166;4.760;2023-04-24T13:07:19;4.93;;;1.80;;
27383;SDS011;14851;51.166;4.760;2023-04-24T13:09:47;3.97;;;1.77;;
27383;SDS011;14851;51.166;4.760;2023-04-24T13:12:14;6.43;;;1.90;;
27383;SDS011;14851;51.166;4.760;2023-04-24T13:14:40;4.18;;;1.65;;
27383;SDS011;14851;51.166;4.760;2023-04-24T13:17:06;5.85;;;1.92;;
27383;SDS011;14851;51.166;4.760;2023-04-24T13:19:36;4.13;;;2.13;;
27383;SDS011;14851;51.166;4.760;2023-04-24T13:22:03;5.97;;;1.85;;
27383;SDS011;14851;51.166;4.760;2023-04-24T13:24:30;7.78;;;2.00;;
27383;SDS011;14851;51.166;4.760;2023-04-24T13:26:59;4.72;;;2.00;;
27383;SDS011;14851;51.166;4.760;2023-04-24T13:29:26;4.97;;;2.05;;
27383;SDS011;14851;51.166;4.760;2023-04-24T13:31:54;6.63;;;2.17;;
27383;SDS011;14851;51.166;4.760;2023-04-24T13:34:24;6.43;;;1.90;;
27383;SDS011;14851;51.166;4.760;2023-04-24T13:36:52;3.75;;;1.63;;
27383;SDS011;14851;51.166;4.760;2023-04-24T13:39:19;6.07;;;2.25;;
27383;SDS011;14851;51.166;4.760;2023-04-24T13:41:46;5.90;;;1.90;;
27383;SDS011;14851;51.166;4.760;2023-04-24T13:44:13;3.92;;;1.67;;
27383;SDS011;14851;51.166;4.760;2023-04-24T13:46:44;5.43;;;1.80;;
27383;SDS011;14851;51.166;4.760;2023-04-24T13:49:13;6.35;;;1.98;;
27383;SDS011;14851;51.166;4.760;2023-04-24T13:51:40;5.38;;;1.30;;
27383;SDS011;14851;51.166;4.760;2023-04-24T13:54:09;3.97;;;1.20;;
27383;SDS011;14851;51.166;4.760;2023-04-24T13:56:38;10.10;;;1.50;;
27383;SDS011;14851;51.166;4.760;2023-04-24T13:59:05;4.72;;;1.40;;
27383;SDS011;14851;51.166;4.760;2023-04-24T14:01:31;3.33;;;1.38;;
27383;SDS011;14851;51.166;4.760;2023-04-24T14:03:56;4.07;;;1.60;;
27383;SDS011;14851;51.166;4.760;2023-04-24T14:06:22;3.78;;;0.90;;
27383;SDS011;14851;51.166;4.760;2023-04-24T14:08:50;4.07;;;1.58;;
27383;SDS011;14851;51.166;4.760;2023-04-24T14:11:16;2.75;;;1.10;;
27383;SDS011;14851;51.166;4.760;2023-04-24T14:13:43;3.45;;;1.50;;
27383;SDS011;14851;51.166;4.760;2023-04-24T14:16:09;4.50;;;1.42;;
27383;SDS011;14851;51.166;4.760;2023-04-24T14:18:36;3.30;;;1.48;;
27383;SDS011;14851;51.166;4.760;2023-04-24T14:21:02;4.97;;;1.27;;
27383;SDS011;14851;51.166;4.760;2023-04-24T14:23:29;3.50;;;1.20;;
27383;SDS011;14851;51.166;4.760;2023-04-24T14:25:56;4.90;;;1.20;;
27383;SDS011;14851;51.166;4.760;2023-04-24T14:28:25;5.60;;;1.67;;
27383;SDS011;14851;51.166;4.760;2023-04-24T14:30:51;3.80;;;1.20;;
27383;SDS011;14851;51.166;4.760;2023-04-24T14:33:19;2.97;;;1.40;;
27383;SDS011;14851;51.166;4.760;2023-04-24T14:35:46;4.78;;;1.25;;
27383;SDS011;14851;51.166;4.760;2023-04-24T14:38:15;4.18;;;1.33;;
27383;SDS011;14851;51.166;4.760;2023-04-24T14:40:40;3.38;;;1.20;;
27383;SDS011;14851;51.166;4.760;2023-04-24T14:43:07;5.22;;;1.20;;
27383;SDS011;14851;51.166;4.760;2023-04-24T14:45:33;4.15;;;1.45;;
27383;SDS011;14851;51.166;4.760;2023-04-24T14:47:58;3.53;;;1.10;;
27383;SDS011;14851;51.166;4.760;2023-04-24T14:50:24;4.30;;;1.38;;
27383;SDS011;14851;51.166;4.760;2023-04-24T14:52:54;6.25;;;1.20;;
27383;SDS011;14851;51.166;4.760;2023-04-24T14:55:23;4.55;;;1.00;;
27383;SDS011;14851;51.166;4.760;2023-04-24T14:57:49;2.35;;;1.00;;
27383;SDS011;14851;51.166;4.760;2023-04-24T15:00:16;2.97;;;1.10;;
27383;SDS011;14851;51.166;4.760;2023-04-24T15:02:43;1.92;;;0.90;;
27383;SDS011;14851;51.166;4.760;2023-04-24T15:05:11;3.22;;;1.00;;
27383;SDS011;14851;51.166;4.760;2023-04-24T15:07:39;2.75;;;1.20;;
27383;SDS011;14851;51.166;4.760;2023-04-24T15:10:06;5.05;;;1.63;;